sensor_id;sensor_type;location;lat;lon;timestamp;P1;durP1;ratioP1;P2;durP2;ratioP2
73276;SDS011;61501;43.316;5.372;2023-04-24T00:01:31;4.35;;;1.40;;
73276;SDS011;61501;43.316;5.372;2023-04-24T00:03:59;3.83;;;1.40;;
73276;SDS011;61501;43.316;5.372;2023-04-24T00:06:27;4.40;;;1.30;;
73276;SDS011;61501;43.316;5.372;2023-04-24T00:09:01;5.07;;;1.77;;
73276;SDS011;61501;43.316;5.372;2023-04-24T00:11:28;2.67;;;1.42;;
73276;SDS011;61501;43.316;5.372;2023-04-24T00:13:54;4.10;;;1.60;;
73276;SDS011;61501;43.316;5.372;2023-04-24T00:16:21;4.07;;;1.58;;
73276;SDS011;61501;43.316;5.372;2023-04-24T00:18:47;3.75;;;1.40;;
73276;SDS011;61501;43.316;5.372;2023-04-24T00:21:13;6.22;;;2.47;;
73276;SDS011;61501;43.316;5.372;2023-04-24T00:23:42;5.03;;;1.70;;
73276;SDS011;61501;43.316;5.372;2023-04-24T00:26:08;4.65;;;1.70;;
73276;SDS011;61501;43.316;5.372;2023-04-24T00:28:34;4.05;;;2.10;;
73276;SDS011;61501;43.316;5.372;2023-04-24T00:31:00;3.58;;;1.40;;
73276;SDS011;61501;43.316;5.372;2023-04-24T00:33:26;4.55;;;2.00;;
73276;SDS011;61501;43.316;5.372;2023-04-24T00:35:51;4.90;;;2.15;;
73276;SDS011;61501;43.316;5.372;2023-04-24T00:38:17;6.75;;;2.33;;
73276;SDS011;61501;43.316;5.372;2023-04-24T00:40:43;3.65;;;2.30;;
73276;SDS011;61501;43.316;5.372;2023-04-24T00:43:09;4.55;;;2.08;;
73276;SDS011;61501;43.316;5.372;2023-04-24T00:45:35;4.88;;;2.20;;
73276;SDS011;61501;43.316;5.372;2023-04-24T00:48:01;4.40;;;1.88;;
73276;SDS011;61501;43.316;5.372;2023-04-24T00:50:27;4.43;;;2.03;;
73276;SDS011;61501;43.316;5.372;2023-04-24T00:52:54;3.15;;;1.98;;
73276;SDS011;61501;43.316;5.372;2023-04-24T00:55:20;4.82;;;2.20;;
73276;SDS011;61501;43.316;5.372;2023-04-24T00:57:45;6.28;;;2.75;;
73276;SDS011;61501;43.316;5.372;2023-04-24T01:00:12;5.97;;;3.00;;
73276;SDS011;61501;43.316;5.372;2023-04-24T01:02:41;6.28;;;3.25;;
73276;SDS011;61501;43.316;5.372;2023-04-24T01:05:10;6.13;;;2.97;;
73276;SDS011;61501;43.316;5.372;2023-04-24T01:07:37;5.68;;;2.70;;
73276;SDS011;61501;43.316;5.372;2023-04-24T01:10:04;4.68;;;3.10;;
73276;SDS011;61501;43.316;5.372;2023-04-24T01:12:31;5.32;;;2.78;;
73276;SDS011;61501;43.316;5.372;2023-04-24T01:14:57;5.57;;;2.35;;
73276;SDS011;61501;43.316;5.372;2023-04-24T01:17:23;4.53;;;2.55;;
73276;SDS011;61501;43.316;5.372;2023-04-24T01:19:48;5.75;;;2.50;;
73276;SDS011;61501;43.316;5.372;2023-04-24T01:22:14;8.02;;;2.45;;
73276;SDS011;61501;43.316;5.372;2023-04-24T01:24:41;4.80;;;2.28;;
73276;SDS011;61501;43.316;5.372;2023-04-24T01:27:08;4.35;;;2.17;;
73276;SDS011;61501;43.316;5.372;2023-04-24T01:29:35;4.38;;;1.95;;
73276;SDS011;61501;43.316;5.372;2023-04-24T01:32:01;4.38;;;2.10;;
73276;SDS011;61501;43.316;5.372;2023-04-24T01:34:29;4.38;;;1.90;;
73276;SDS011;61501;43.316;5.372;2023-04-24T01:36:56;4.10;;;1.88;;
73276;SDS011;61501;43.316;5.372;2023-04-24T01:39:21;4.65;;;2.10;;
73276;SDS011;61501;43.316;5.372;2023-04-24T01:41:51;4.22;;;2.10;;
73276;SDS011;61501;43.316;5.372;2023-04-24T01:44:17;3.50;;;1.90;;
73276;SDS011;61501;43.316;5.372;2023-04-24T01:46:43;5.03;;;1.90;;
73276;SDS011;61501;43.316;5.372;2023-04-24T01:49:09;3.90;;;2.15;;
73276;SDS011;61501;43.316;5.372;2023-04-24T01:51:35;4.68;;;1.73;;
73276;SDS011;61501;43.316;5.372;2023-04-24T01:54:01;3.47;;;1.98;;
73276;SDS011;61501;43.316;5.372;2023-04-24T01:56:28;3.58;;;2.05;;
73276;SDS011;61501;43.316;5.372;2023-04-24T01:58:55;3.90;;;1.80;;
73276;SDS011;61501;43.316;5.372;2023-04-24T02:01:23;2.90;;;1.60;;
73276;SDS011;61501;43.316;5.372;2023-04-24T02:03:49;3.38;;;1.67;;
73276;SDS011;61501;43.316;5.372;2023-04-24T02:06:15;4.70;;;1.77;;
73276;SDS011;61501;43.316;5.372;2023-04-24T02:08:41;3.35;;;1.98;;
73276;SDS011;61501;43.316;5.372;2023-04-24T02:11:08;5.57;;;1.67;;
73276;SDS011;61501;43.316;5.372;2023-04-24T02:13:34;5.70;;;1.98;;
73276;SDS011;61501;43.316;5.372;2023-04-24T02:16:00;3.03;;;1.80;;
73276;SDS011;61501;43.316;5.372;2023-04-24T02:18:25;6.10;;;1.95;;
73276;SDS011;61501;43.316;5.372;2023-04-24T02:20:51;4.15;;;2.00;;
73276;SDS011;61501;43.316;5.372;2023-04-24T02:23:17;4.28;;;1.80;;
73276;SDS011;61501;43.316;5.372;2023-04-24T02:25:42;4.22;;;1.70;;
73276;SDS011;61501;43.316;5.372;2023-04-24T02:28:08;3.97;;;2.00;;
73276;SDS011;61501;43.316;5.372;2023-04-24T02:30:33;6.90;;;2.45;;
73276;SDS011;61501;43.316;5.372;2023-04-24T02:32:59;5.80;;;2.88;;
73276;SDS011;61501;43.316;5.372;2023-04-24T02:35:25;3.60;;;2.38;;
73276;SDS011;61501;43.316;5.372;2023-04-24T02:37:50;4.15;;;2.22;;
73276;SDS011;61501;43.316;5.372;2023-04-24T02:40:16;4.82;;;2.22;;
73276;SDS011;61501;43.316;5.372;2023-04-24T02:42:42;5.07;;;2.00;;
73276;SDS011;61501;43.316;5.372;2023-04-24T02:45:07;3.55;;;2.30;;
73276;SDS011;61501;43.316;5.372;2023-04-24T02:47:33;5.47;;;2.20;;
73276;SDS011;61501;43.316;5.372;2023-04-24T02:49:59;3.88;;;1.77;;
73276;SDS011;61501;43.316;5.372;2023-04-24T02:52:25;4.30;;;1.80;;
73276;SDS011;61501;43.316;5.372;2023-04-24T02:54:50;4.35;;;2.00;;
73276;SDS011;61501;43.316;5.372;2023-04-24T02:57:16;3.67;;;1.73;;
73276;SDS011;61501;43.316;5.372;2023-04-24T02:59:42;3.80;;;1.77;;
73276;SDS011;61501;43.316;5.372;2023-04-24T03:02:07;4.15;;;1.70;;
73276;SDS011;61501;43.316;5.372;2023-04-24T03:04:33;4.85;;;1.58;;
73276;SDS011;61501;43.316;5.372;2023-04-24T03:06:59;4.97;;;1.98;;
73276;SDS011;61501;43.316;5.372;2023-04-24T03:09:24;4.95;;;1.45;;
73276;SDS011;61501;43.316;5.372;2023-04-24T03:11:50;5.78;;;1.83;;
73276;SDS011;61501;43.316;5.372;2023-04-24T03:14:16;6.60;;;1.40;;
73276;SDS011;61501;43.316;5.372;2023-04-24T03:16:42;5.57;;;1.70;;
73276;SDS011;61501;43.316;5.372;2023-04-24T03:19:07;3.70;;;1.30;;
73276;SDS011;61501;43.316;5.372;2023-04-24T03:21:33;5.32;;;1.80;;
73276;SDS011;61501;43.316;5.372;2023-04-24T03:24:00;2.53;;;1.40;;
73276;SDS011;61501;43.316;5.372;2023-04-24T03:26:26;4.30;;;1.60;;
73276;SDS011;61501;43.316;5.372;2023-04-24T03:28:51;3.78;;;1.80;;
73276;SDS011;61501;43.316;5.372;2023-04-24T03:31:17;7.03;;;1.90;;
73276;SDS011;61501;43.316;5.372;2023-04-24T03:33:44;4.50;;;1.75;;
73276;SDS011;61501;43.316;5.372;2023-04-24T03:36:09;5.18;;;1.77;;
73276;SDS011;61501;43.316;5.372;2023-04-24T03:38:35;3.90;;;1.80;;
73276;SDS011;61501;43.316;5.372;2023-04-24T03:41:00;7.70;;;1.92;;
73276;SDS011;61501;43.316;5.372;2023-04-24T03:43:26;5.53;;;2.05;;
73276;SDS011;61501;43.316;5.372;2023-04-24T03:45:52;4.80;;;1.73;;
73276;SDS011;61501;43.316;5.372;2023-04-24T03:48:18;5.75;;;1.70;;
73276;SDS011;61501;43.316;5.372;2023-04-24T03:50:43;5.88;;;1.98;;
73276;SDS011;61501;43.316;5.372;2023-04-24T03:53:09;7.75;;;2.13;;
73276;SDS011;61501;43.316;5.372;2023-04-24T03:55:35;4.95;;;1.73;;
73276;SDS011;61501;43.316;5.372;2023-04-24T03:58:01;4.25;;;1.50;;
73276;SDS011;61501;43.316;5.372;2023-04-24T04:00:26;5.95;;;1.65;;
73276;SDS011;61501;43.316;5.372;2023-04-24T04:02:52;5.50;;;1.85;;
73276;SDS011;61501;43.316;5.372;2023-04-24T04:05:18;5.30;;;1.63;;
73276;SDS011;61501;43.316;5.372;2023-04-24T04:07:44;5.60;;;2.05;;
73276;SDS011;61501;43.316;5.372;2023-04-24T04:10:09;4.50;;;1.80;;
73276;SDS011;61501;43.316;5.372;2023-04-24T04:12:35;4.32;;;2.05;;
73276;SDS011;61501;43.316;5.372;2023-04-24T04:15:01;4.38;;;1.90;;
73276;SDS011;61501;43.316;5.372;2023-04-24T04:17:26;4.60;;;1.70;;
73276;SDS011;61501;43.316;5.372;2023-04-24T04:19:52;8.10;;;2.30;;
73276;SDS011;61501;43.316;5.372;2023-04-24T04:22:18;3.97;;;1.98;;
73276;SDS011;61501;43.316;5.372;2023-04-24T04:24:43;5.72;;;2.00;;
73276;SDS011;61501;43.316;5.372;2023-04-24T04:27:09;5.60;;;2.08;;
73276;SDS011;61501;43.316;5.372;2023-04-24T04:29:35;7.15;;;1.95;;
73276;SDS011;61501;43.316;5.372;2023-04-24T04:32:01;6.30;;;2.15;;
73276;SDS011;61501;43.316;5.372;2023-04-24T04:34:27;4.38;;;1.88;;
73276;SDS011;61501;43.316;5.372;2023-04-24T04:36:54;3.65;;;1.83;;
73276;SDS011;61501;43.316;5.372;2023-04-24T04:39:20;7.07;;;1.88;;
73276;SDS011;61501;43.316;5.372;2023-04-24T04:41:46;3.65;;;1.60;;
73276;SDS011;61501;43.316;5.372;2023-04-24T04:44:13;9.05;;;2.00;;
73276;SDS011;61501;43.316;5.372;2023-04-24T04:46:40;8.80;;;2.20;;
73276;SDS011;61501;43.316;5.372;2023-04-24T04:49:06;6.28;;;2.10;;
73276;SDS011;61501;43.316;5.372;2023-04-24T04:51:33;8.88;;;2.53;;
73276;SDS011;61501;43.316;5.372;2023-04-24T04:53:59;6.88;;;2.22;;
73276;SDS011;61501;43.316;5.372;2023-04-24T04:56:25;7.10;;;3.38;;
73276;SDS011;61501;43.316;5.372;2023-04-24T04:58:51;6.82;;;2.85;;
73276;SDS011;61501;43.316;5.372;2023-04-24T05:01:16;7.20;;;2.63;;
73276;SDS011;61501;43.316;5.372;2023-04-24T05:03:42;6.70;;;2.35;;
73276;SDS011;61501;43.316;5.372;2023-04-24T05:06:08;8.55;;;2.45;;
73276;SDS011;61501;43.316;5.372;2023-04-24T05:08:33;7.47;;;2.80;;
73276;SDS011;61501;43.316;5.372;2023-04-24T05:10:59;6.38;;;2.33;;
73276;SDS011;61501;43.316;5.372;2023-04-24T05:13:25;6.22;;;2.78;;
73276;SDS011;61501;43.316;5.372;2023-04-24T05:15:51;10.45;;;2.63;;
73276;SDS011;61501;43.316;5.372;2023-04-24T05:18:17;7.03;;;2.40;;
73276;SDS011;61501;43.316;5.372;2023-04-24T05:20:42;6.80;;;2.28;;
73276;SDS011;61501;43.316;5.372;2023-04-24T05:23:09;6.97;;;2.58;;
73276;SDS011;61501;43.316;5.372;2023-04-24T05:25:34;5.57;;;2.30;;
73276;SDS011;61501;43.316;5.372;2023-04-24T05:28:01;5.65;;;2.30;;
73276;SDS011;61501;43.316;5.372;2023-04-24T05:30:27;8.88;;;2.72;;
73276;SDS011;61501;43.316;5.372;2023-04-24T05:32:53;5.45;;;1.95;;
73276;SDS011;61501;43.316;5.372;2023-04-24T05:35:18;7.30;;;2.40;;
73276;SDS011;61501;43.316;5.372;2023-04-24T05:37:44;9.40;;;2.83;;
73276;SDS011;61501;43.316;5.372;2023-04-24T05:40:10;6.80;;;2.53;;
73276;SDS011;61501;43.316;5.372;2023-04-24T05:42:36;7.88;;;2.03;;
73276;SDS011;61501;43.316;5.372;2023-04-24T05:45:02;5.85;;;2.08;;
73276;SDS011;61501;43.316;5.372;2023-04-24T05:47:28;6.97;;;2.25;;
73276;SDS011;61501;43.316;5.372;2023-04-24T05:49:54;8.18;;;2.47;;
73276;SDS011;61501;43.316;5.372;2023-04-24T05:52:19;6.70;;;2.40;;
73276;SDS011;61501;43.316;5.372;2023-04-24T05:54:45;8.07;;;2.08;;
73276;SDS011;61501;43.316;5.372;2023-04-24T05:57:11;10.88;;;2.92;;
73276;SDS011;61501;43.316;5.372;2023-04-24T05:59:37;7.15;;;2.97;;
73276;SDS011;61501;43.316;5.372;2023-04-24T06:02:05;6.05;;;2.00;;
73276;SDS011;61501;43.316;5.372;2023-04-24T06:04:32;3.75;;;2.03;;
73276;SDS011;61501;43.316;5.372;2023-04-24T06:06:58;6.28;;;2.33;;
73276;SDS011;61501;43.316;5.372;2023-04-24T06:09:24;9.00;;;2.40;;
73276;SDS011;61501;43.316;5.372;2023-04-24T06:11:50;5.03;;;2.05;;
73276;SDS011;61501;43.316;5.372;2023-04-24T06:14:18;7.65;;;2.63;;
73276;SDS011;61501;43.316;5.372;2023-04-24T06:16:44;5.50;;;2.28;;
73276;SDS011;61501;43.316;5.372;2023-04-24T06:19:09;8.35;;;2.53;;
73276;SDS011;61501;43.316;5.372;2023-04-24T06:21:35;10.70;;;2.67;;
73276;SDS011;61501;43.316;5.372;2023-04-24T06:24:01;10.13;;;2.42;;
73276;SDS011;61501;43.316;5.372;2023-04-24T06:26:26;12.00;;;2.78;;
73276;SDS011;61501;43.316;5.372;2023-04-24T06:28:53;7.30;;;2.25;;
73276;SDS011;61501;43.316;5.372;2023-04-24T06:31:19;6.93;;;2.20;;
73276;SDS011;61501;43.316;5.372;2023-04-24T06:33:45;7.18;;;2.35;;
73276;SDS011;61501;43.316;5.372;2023-04-24T06:36:11;9.43;;;2.85;;
73276;SDS011;61501;43.316;5.372;2023-04-24T06:38:37;9.30;;;2.50;;
73276;SDS011;61501;43.316;5.372;2023-04-24T06:41:03;8.15;;;2.28;;
73276;SDS011;61501;43.316;5.372;2023-04-24T06:43:30;9.02;;;2.38;;
73276;SDS011;61501;43.316;5.372;2023-04-24T06:45:57;7.35;;;2.33;;
73276;SDS011;61501;43.316;5.372;2023-04-24T06:48:23;9.63;;;2.45;;
73276;SDS011;61501;43.316;5.372;2023-04-24T06:50:49;10.32;;;2.53;;
73276;SDS011;61501;43.316;5.372;2023-04-24T06:53:15;5.32;;;2.17;;
73276;SDS011;61501;43.316;5.372;2023-04-24T06:55:40;11.48;;;3.08;;
73276;SDS011;61501;43.316;5.372;2023-04-24T06:58:06;9.98;;;2.40;;
73276;SDS011;61501;43.316;5.372;2023-04-24T07:00:32;6.20;;;1.85;;
73276;SDS011;61501;43.316;5.372;2023-04-24T07:02:58;5.68;;;2.03;;
73276;SDS011;61501;43.316;5.372;2023-04-24T07:05:24;6.53;;;2.10;;
73276;SDS011;61501;43.316;5.372;2023-04-24T07:07:49;8.13;;;2.10;;
73276;SDS011;61501;43.316;5.372;2023-04-24T07:10:16;7.07;;;2.05;;
73276;SDS011;61501;43.316;5.372;2023-04-24T07:12:42;7.22;;;2.20;;
73276;SDS011;61501;43.316;5.372;2023-04-24T07:15:07;7.30;;;1.95;;
73276;SDS011;61501;43.316;5.372;2023-04-24T07:17:34;5.65;;;1.88;;
73276;SDS011;61501;43.316;5.372;2023-04-24T07:20:00;12.68;;;2.42;;
73276;SDS011;61501;43.316;5.372;2023-04-24T07:22:26;9.45;;;2.58;;
73276;SDS011;61501;43.316;5.372;2023-04-24T07:24:51;7.07;;;2.50;;
73276;SDS011;61501;43.316;5.372;2023-04-24T07:27:17;10.15;;;2.35;;
73276;SDS011;61501;43.316;5.372;2023-04-24T07:29:42;5.20;;;1.75;;
73276;SDS011;61501;43.316;5.372;2023-04-24T07:32:08;7.55;;;2.08;;
73276;SDS011;61501;43.316;5.372;2023-04-24T07:34:34;8.80;;;2.42;;
73276;SDS011;61501;43.316;5.372;2023-04-24T07:37:00;7.82;;;2.38;;
73276;SDS011;61501;43.316;5.372;2023-04-24T07:39:26;7.28;;;2.13;;
73276;SDS011;61501;43.316;5.372;2023-04-24T07:41:52;6.10;;;2.22;;
73276;SDS011;61501;43.316;5.372;2023-04-24T07:44:18;5.68;;;1.92;;
73276;SDS011;61501;43.316;5.372;2023-04-24T07:46:43;7.82;;;2.03;;
73276;SDS011;61501;43.316;5.372;2023-04-24T07:49:09;7.00;;;2.20;;
73276;SDS011;61501;43.316;5.372;2023-04-24T07:51:35;8.40;;;1.85;;
73276;SDS011;61501;43.316;5.372;2023-04-24T07:54:03;9.93;;;2.05;;
73276;SDS011;61501;43.316;5.372;2023-04-24T07:56:33;8.27;;;2.08;;
73276;SDS011;61501;43.316;5.372;2023-04-24T07:58:59;6.28;;;2.20;;
73276;SDS011;61501;43.316;5.372;2023-04-24T08:01:26;11.18;;;2.50;;
73276;SDS011;61501;43.316;5.372;2023-04-24T08:03:52;9.43;;;2.05;;
73276;SDS011;61501;43.316;5.372;2023-04-24T08:06:17;11.45;;;2.60;;
73276;SDS011;61501;43.316;5.372;2023-04-24T08:08:43;11.55;;;2.47;;
73276;SDS011;61501;43.316;5.372;2023-04-24T08:11:09;8.05;;;2.15;;
73276;SDS011;61501;43.316;5.372;2023-04-24T08:13:35;8.02;;;2.10;;
73276;SDS011;61501;43.316;5.372;2023-04-24T08:16:00;9.80;;;2.08;;
73276;SDS011;61501;43.316;5.372;2023-04-24T08:18:26;5.75;;;2.17;;
73276;SDS011;61501;43.316;5.372;2023-04-24T08:20:52;6.82;;;1.85;;
73276;SDS011;61501;43.316;5.372;2023-04-24T08:23:18;8.23;;;2.20;;
73276;SDS011;61501;43.316;5.372;2023-04-24T08:25:43;11.02;;;2.58;;
73276;SDS011;61501;43.316;5.372;2023-04-24T08:28:09;7.82;;;1.92;;
73276;SDS011;61501;43.316;5.372;2023-04-24T08:30:35;10.10;;;1.80;;
73276;SDS011;61501;43.316;5.372;2023-04-24T08:33:02;4.82;;;1.75;;
73276;SDS011;61501;43.316;5.372;2023-04-24T08:35:28;7.63;;;1.90;;
73276;SDS011;61501;43.316;5.372;2023-04-24T08:37:53;6.38;;;1.90;;
73276;SDS011;61501;43.316;5.372;2023-04-24T08:40:20;8.38;;;2.00;;
73276;SDS011;61501;43.316;5.372;2023-04-24T08:42:51;7.40;;;1.80;;
73276;SDS011;61501;43.316;5.372;2023-04-24T08:45:20;7.05;;;2.25;;
73276;SDS011;61501;43.316;5.372;2023-04-24T08:47:46;7.10;;;2.13;;
73276;SDS011;61501;43.316;5.372;2023-04-24T08:50:12;8.55;;;2.30;;
73276;SDS011;61501;43.316;5.372;2023-04-24T08:52:38;6.45;;;1.60;;
73276;SDS011;61501;43.316;5.372;2023-04-24T08:55:04;5.88;;;1.60;;
73276;SDS011;61501;43.316;5.372;2023-04-24T08:57:30;6.85;;;1.85;;
73276;SDS011;61501;43.316;5.372;2023-04-24T08:59:58;6.70;;;1.83;;
73276;SDS011;61501;43.316;5.372;2023-04-24T09:02:25;8.95;;;1.88;;
73276;SDS011;61501;43.316;5.372;2023-04-24T09:04:51;6.47;;;1.52;;
73276;SDS011;61501;43.316;5.372;2023-04-24T09:07:18;7.68;;;1.98;;
73276;SDS011;61501;43.316;5.372;2023-04-24T09:09:44;9.18;;;1.63;;
73276;SDS011;61501;43.316;5.372;2023-04-24T09:12:10;8.25;;;1.77;;
73276;SDS011;61501;43.316;5.372;2023-04-24T09:14:36;7.63;;;1.63;;
73276;SDS011;61501;43.316;5.372;2023-04-24T09:17:09;10.35;;;1.65;;
73276;SDS011;61501;43.316;5.372;2023-04-24T09:19:36;4.50;;;1.27;;
73276;SDS011;61501;43.316;5.372;2023-04-24T09:22:04;8.95;;;2.05;;
73276;SDS011;61501;43.316;5.372;2023-04-24T09:24:31;7.13;;;1.60;;
73276;SDS011;61501;43.316;5.372;2023-04-24T09:26:57;5.75;;;1.40;;
73276;SDS011;61501;43.316;5.372;2023-04-24T09:29:24;3.38;;;1.33;;
73276;SDS011;61501;43.316;5.372;2023-04-24T09:31:50;4.63;;;1.85;;
73276;SDS011;61501;43.316;5.372;2023-04-24T09:34:20;3.63;;;1.30;;
73276;SDS011;61501;43.316;5.372;2023-04-24T09:36:48;6.30;;;1.73;;
73276;SDS011;61501;43.316;5.372;2023-04-24T09:39:14;3.53;;;1.45;;
73276;SDS011;61501;43.316;5.372;2023-04-24T09:46:55;7.65;;;2.30;;
73276;SDS011;61501;43.316;5.372;2023-04-24T09:49:26;5.15;;;1.80;;
73276;SDS011;61501;43.316;5.372;2023-04-24T09:52:02;6.85;;;1.42;;
73276;SDS011;61501;43.316;5.372;2023-04-24T09:54:31;5.68;;;1.50;;
73276;SDS011;61501;43.316;5.372;2023-04-24T09:56:58;7.78;;;1.50;;
73276;SDS011;61501;43.316;5.372;2023-04-24T09:59:25;7.10;;;1.40;;
73276;SDS011;61501;43.316;5.372;2023-04-24T10:01:51;5.00;;;1.27;;
73276;SDS011;61501;43.316;5.372;2023-04-24T10:06:44;4.18;;;1.20;;
73276;SDS011;61501;43.316;5.372;2023-04-24T10:09:10;4.82;;;0.82;;
73276;SDS011;61501;43.316;5.372;2023-04-24T10:11:37;5.18;;;1.40;;
73276;SDS011;61501;43.316;5.372;2023-04-24T10:14:06;3.13;;;1.20;;
73276;SDS011;61501;43.316;5.372;2023-04-24T10:16:35;5.78;;;1.02;;
73276;SDS011;61501;43.316;5.372;2023-04-24T10:19:02;1.60;;;0.68;;
73276;SDS011;61501;43.316;5.372;2023-04-24T10:21:28;1.80;;;0.95;;
73276;SDS011;61501;43.316;5.372;2023-04-24T10:23:55;1.67;;;0.68;;
73276;SDS011;61501;43.316;5.372;2023-04-24T10:26:21;3.00;;;1.30;;
73276;SDS011;61501;43.316;5.372;2023-04-24T10:28:47;3.45;;;0.93;;
73276;SDS011;61501;43.316;5.372;2023-04-24T10:31:13;5.78;;;1.10;;
73276;SDS011;61501;43.316;5.372;2023-04-24T10:33:40;4.50;;;1.08;;
73276;SDS011;61501;43.316;5.372;2023-04-24T10:36:08;3.38;;;1.35;;
73276;SDS011;61501;43.316;5.372;2023-04-24T10:38:35;2.88;;;1.05;;
73276;SDS011;61501;43.316;5.372;2023-04-24T10:41:11;2.13;;;0.88;;
73276;SDS011;61501;43.316;5.372;2023-04-24T10:44:09;6.45;;;1.42;;
73276;SDS011;61501;43.316;5.372;2023-04-24T10:46:43;3.03;;;1.05;;
73276;SDS011;61501;43.316;5.372;2023-04-24T10:49:10;2.63;;;1.20;;
73276;SDS011;61501;43.316;5.372;2023-04-24T10:54:29;3.10;;;1.20;;
73276;SDS011;61501;43.316;5.372;2023-04-24T10:59:51;4.60;;;1.17;;
73276;SDS011;61501;43.316;5.372;2023-04-24T11:02:38;1.65;;;0.93;;
73276;SDS011;61501;43.316;5.372;2023-04-24T11:05:05;4.05;;;1.08;;
73276;SDS011;61501;43.316;5.372;2023-04-24T11:10:46;1.67;;;0.80;;
73276;SDS011;61501;43.316;5.372;2023-04-24T11:13:21;5.78;;;1.33;;
73276;SDS011;61501;43.316;5.372;2023-04-24T11:16:11;3.75;;;1.10;;
73276;SDS011;61501;43.316;5.372;2023-04-24T11:18:49;4.78;;;1.75;;
73276;SDS011;61501;43.316;5.372;2023-04-24T11:21:25;5.15;;;1.40;;
73276;SDS011;61501;43.316;5.372;2023-04-24T11:23:56;2.38;;;1.13;;
73276;SDS011;61501;43.316;5.372;2023-04-24T11:26:22;3.45;;;1.08;;
73276;SDS011;61501;43.316;5.372;2023-04-24T11:28:55;1.95;;;1.10;;
73276;SDS011;61501;43.316;5.372;2023-04-24T11:31:38;2.13;;;1.13;;
73276;SDS011;61501;43.316;5.372;2023-04-24T11:34:13;3.70;;;1.20;;
73276;SDS011;61501;43.316;5.372;2023-04-24T11:36:43;3.85;;;1.40;;
73276;SDS011;61501;43.316;5.372;2023-04-24T11:39:10;3.13;;;1.10;;
73276;SDS011;61501;43.316;5.372;2023-04-24T11:41:36;2.92;;;1.30;;
73276;SDS011;61501;43.316;5.372;2023-04-24T11:44:02;2.50;;;1.00;;
73276;SDS011;61501;43.316;5.372;2023-04-24T11:46:30;1.83;;;1.00;;
73276;SDS011;61501;43.316;5.372;2023-04-24T11:48:57;2.08;;;1.00;;
73276;SDS011;61501;43.316;5.372;2023-04-24T11:51:23;5.05;;;1.20;;
73276;SDS011;61501;43.316;5.372;2023-04-24T11:53:51;1.73;;;0.70;;
73276;SDS011;61501;43.316;5.372;2023-04-24T11:56:18;1.65;;;0.80;;
73276;SDS011;61501;43.316;5.372;2023-04-24T11:58:44;3.08;;;0.85;;
73276;SDS011;61501;43.316;5.372;2023-04-24T12:01:11;2.60;;;1.40;;
73276;SDS011;61501;43.316;5.372;2023-04-24T12:03:36;2.55;;;1.27;;
73276;SDS011;61501;43.316;5.372;2023-04-24T12:06:09;3.80;;;1.13;;
73276;SDS011;61501;43.316;5.372;2023-04-24T12:08:36;4.00;;;1.15;;
73276;SDS011;61501;43.316;5.372;2023-04-24T12:11:03;3.20;;;1.20;;
73276;SDS011;61501;43.316;5.372;2023-04-24T12:13:30;2.90;;;1.10;;
73276;SDS011;61501;43.316;5.372;2023-04-24T12:15:58;3.85;;;0.90;;
73276;SDS011;61501;43.316;5.372;2023-04-24T12:18:25;3.00;;;0.90;;
73276;SDS011;61501;43.316;5.372;2023-04-24T12:20:51;4.65;;;1.45;;
73276;SDS011;61501;43.316;5.372;2023-04-24T12:23:16;1.30;;;0.70;;
73276;SDS011;61501;43.316;5.372;2023-04-24T12:25:59;8.50;;;1.43;;
73276;SDS011;61501;43.316;5.372;2023-04-24T12:28:33;3.30;;;1.00;;
73276;SDS011;61501;43.316;5.372;2023-04-24T12:31:01;3.40;;;1.40;;
73276;SDS011;61501;43.316;5.372;2023-04-24T12:33:27;2.55;;;1.02;;
73276;SDS011;61501;43.316;5.372;2023-04-24T12:35:53;2.50;;;1.35;;
73276;SDS011;61501;43.316;5.372;2023-04-24T12:38:24;1.75;;;1.08;;
73276;SDS011;61501;43.316;5.372;2023-04-24T12:41:12;3.35;;;1.42;;
73276;SDS011;61501;43.316;5.372;2023-04-24T12:43:38;3.30;;;1.00;;
73276;SDS011;61501;43.316;5.372;2023-04-24T12:46:04;4.13;;;1.20;;
73276;SDS011;61501;43.316;5.372;2023-04-24T12:48:30;2.45;;;1.17;;
73276;SDS011;61501;43.316;5.372;2023-04-24T12:50:59;1.52;;;0.75;;
73276;SDS011;61501;43.316;5.372;2023-04-24T12:53:28;3.60;;;1.20;;
73276;SDS011;61501;43.316;5.372;2023-04-24T12:55:55;3.15;;;1.52;;
73276;SDS011;61501;43.316;5.372;2023-04-24T12:58:21;1.95;;;0.70;;
73276;SDS011;61501;43.316;5.372;2023-04-24T13:00:47;4.50;;;1.35;;
73276;SDS011;61501;43.316;5.372;2023-04-24T13:03:13;3.97;;;0.95;;
73276;SDS011;61501;43.316;5.372;2023-04-24T13:05:39;3.00;;;1.10;;
73276;SDS011;61501;43.316;5.372;2023-04-24T13:08:05;2.60;;;0.90;;
73276;SDS011;61501;43.316;5.372;2023-04-24T13:10:31;4.53;;;1.88;;
73276;SDS011;61501;43.316;5.372;2023-04-24T13:12:57;3.70;;;1.33;;
73276;SDS011;61501;43.316;5.372;2023-04-24T13:15:22;4.63;;;1.45;;
73276;SDS011;61501;43.316;5.372;2023-04-24T13:17:48;3.72;;;1.10;;
73276;SDS011;61501;43.316;5.372;2023-04-24T13:20:15;3.67;;;1.15;;
73276;SDS011;61501;43.316;5.372;2023-04-24T13:22:42;4.05;;;1.77;;
73276;SDS011;61501;43.316;5.372;2023-04-24T13:25:08;3.25;;;1.15;;
73276;SDS011;61501;43.316;5.372;2023-04-24T13:27:34;3.15;;;1.50;;
73276;SDS011;61501;43.316;5.372;2023-04-24T13:29:59;8.75;;;1.83;;
73276;SDS011;61501;43.316;5.372;2023-04-24T13:32:25;3.50;;;1.10;;
73276;SDS011;61501;43.316;5.372;2023-04-24T13:34:51;2.15;;;0.90;;
73276;SDS011;61501;43.316;5.372;2023-04-24T13:37:17;1.83;;;0.93;;
73276;SDS011;61501;43.316;5.372;2023-04-24T13:39:43;3.33;;;1.00;;
73276;SDS011;61501;43.316;5.372;2023-04-24T13:42:08;2.17;;;0.90;;
73276;SDS011;61501;43.316;5.372;2023-04-24T13:44:34;2.00;;;0.85;;
73276;SDS011;61501;43.316;5.372;2023-04-24T13:47:00;2.05;;;1.17;;
73276;SDS011;61501;43.316;5.372;2023-04-24T13:49:26;3.55;;;1.10;;
73276;SDS011;61501;43.316;5.372;2023-04-24T13:51:53;2.08;;;1.10;;
73276;SDS011;61501;43.316;5.372;2023-04-24T13:54:19;2.25;;;1.10;;
73276;SDS011;61501;43.316;5.372;2023-04-24T13:56:45;4.93;;;1.20;;
73276;SDS011;61501;43.316;5.372;2023-04-24T13:59:12;1.75;;;0.80;;
73276;SDS011;61501;43.316;5.372;2023-04-24T14:01:38;3.03;;;1.35;;
73276;SDS011;61501;43.316;5.372;2023-04-24T14:04:04;6.10;;;1.20;;
73276;SDS011;61501;43.316;5.372;2023-04-24T14:06:29;3.13;;;1.00;;
73276;SDS011;61501;43.316;5.372;2023-04-24T14:08:56;2.75;;;1.10;;
73276;SDS011;61501;43.316;5.372;2023-04-24T14:11:21;1.10;;;0.80;;
73276;SDS011;61501;43.316;5.372;2023-04-24T14:13:54;2.25;;;1.00;;
73276;SDS011;61501;43.316;5.372;2023-04-24T14:16:21;2.55;;;1.00;;
73276;SDS011;61501;43.316;5.372;2023-04-24T14:18:47;1.92;;;1.00;;
73276;SDS011;61501;43.316;5.372;2023-04-24T14:21:12;3.20;;;1.05;;
73276;SDS011;61501;43.316;5.372;2023-04-24T14:23:38;4.15;;;1.42;;
73276;SDS011;61501;43.316;5.372;2023-04-24T14:26:04;2.33;;;1.20;;
73276;SDS011;61501;43.316;5.372;2023-04-24T14:28:29;5.03;;;1.40;;
73276;SDS011;61501;43.316;5.372;2023-04-24T14:30:55;2.65;;;1.00;;
73276;SDS011;61501;43.316;5.372;2023-04-24T14:33:21;3.97;;;1.10;;
73276;SDS011;61501;43.316;5.372;2023-04-24T14:35:46;2.50;;;1.30;;
73276;SDS011;61501;43.316;5.372;2023-04-24T14:38:12;2.50;;;1.00;;
73276;SDS011;61501;43.316;5.372;2023-04-24T14:40:38;2.55;;;1.00;;
73276;SDS011;61501;43.316;5.372;2023-04-24T14:43:04;1.63;;;0.98;;
73276;SDS011;61501;43.316;5.372;2023-04-24T14:45:30;1.45;;;0.80;;
73276;SDS011;61501;43.316;5.372;2023-04-24T14:47:56;2.40;;;1.00;;
73276;SDS011;61501;43.316;5.372;2023-04-24T14:50:22;3.05;;;1.25;;
73276;SDS011;61501;43.316;5.372;2023-04-24T14:52:48;3.67;;;1.17;;
73276;SDS011;61501;43.316;5.372;2023-04-24T14:55:14;3.95;;;1.05;;
73276;SDS011;61501;43.316;5.372;2023-04-24T14:57:40;1.95;;;1.05;;
73276;SDS011;61501;43.316;5.372;2023-04-24T15:00:06;8.10;;;2.00;;
73276;SDS011;61501;43.316;5.372;2023-04-24T15:02:34;8.27;;;2.03;;